createdAt,value
2023-05-16T00:00:21.116Z,12.00
2023-05-16T00:01:03.528Z,11.75
2023-05-16T00:01:45.250Z,11.55
2023-05-16T00:02:27.103Z,11.30
2023-05-16T00:03:09.439Z,10.75
2023-05-16T00:03:51.253Z,10.45
2023-05-16T00:04:33.135Z,10.07
2023-05-16T00:05:16.611Z,10.75
2023-05-16T00:05:59.316Z,10.57
2023-05-16T00:06:41.038Z,10.15
2023-05-16T00:07:22.651Z,10.00
2023-05-16T00:08:06.649Z,10.98
2023-05-16T00:08:49.338Z,11.38
2023-05-16T00:09:31.005Z,11.43
2023-05-16T00:10:12.677Z,11.85
2023-05-16T00:10:54.418Z,13.20
2023-05-16T00:11:36.096Z,11.25
2023-05-16T00:12:17.779Z,11.68
2023-05-16T00:13:01.800Z,11.65
2023-05-16T00:13:45.085Z,11.02
2023-05-16T00:14:27.111Z,11.30
2023-05-16T00:15:12.851Z,10.93
2023-05-16T00:15:57.720Z,10.90
2023-05-16T00:16:41.779Z,11.50
2023-05-16T00:17:23.893Z,11.55
2023-05-16T00:18:05.814Z,11.73
2023-05-16T00:18:48.215Z,11.75
2023-05-16T00:19:30.055Z,12.70
2023-05-16T00:20:14.287Z,11.93
2023-05-16T00:20:56.075Z,13.38
2023-05-16T00:21:37.662Z,12.25
2023-05-16T00:22:22.462Z,12.25
2023-05-16T00:23:04.095Z,11.43
2023-05-16T00:23:45.761Z,11.32
2023-05-16T00:24:27.491Z,11.57
2023-05-16T00:25:09.504Z,12.40
2023-05-16T00:25:51.282Z,12.13
2023-05-16T00:26:35.091Z,13.15
2023-05-16T00:27:16.822Z,12.48
2023-05-16T00:27:58.505Z,13.15
2023-05-16T00:28:40.218Z,13.30
2023-05-16T00:29:24.304Z,12.25
2023-05-16T00:30:07.474Z,13.30
2023-05-16T00:30:49.054Z,12.00
2023-05-16T00:31:31.119Z,12.90
2023-05-16T00:32:12.879Z,11.98
2023-05-16T00:32:55.952Z,13.02
2023-05-16T00:33:38.614Z,12.38
2023-05-16T00:34:21.372Z,13.20
2023-05-16T00:35:03.745Z,12.20
2023-05-16T00:35:45.597Z,12.15
2023-05-16T00:36:27.401Z,12.20
2023-05-16T00:37:09.020Z,12.45
2023-05-16T00:37:52.050Z,11.77
2023-05-16T00:38:33.723Z,11.95
2023-05-16T00:39:17.030Z,11.07
2023-05-16T00:39:58.671Z,10.68
2023-05-16T00:40:40.454Z,11.73
2023-05-16T00:41:25.317Z,12.05
2023-05-16T00:42:07.129Z,11.82
2023-05-16T00:42:49.005Z,11.25
2023-05-16T00:43:31.008Z,11.43
2023-05-16T00:44:12.711Z,10.63
2023-05-16T00:44:54.328Z,12.45
2023-05-16T00:45:35.938Z,11.20
2023-05-16T00:46:17.591Z,11.98
2023-05-16T00:47:00.266Z,11.02
2023-05-16T00:47:41.974Z,11.23
2023-05-16T00:48:23.793Z,11.85
2023-05-16T00:49:06.373Z,12.57
2023-05-16T00:49:49.179Z,13.55
2023-05-16T00:50:33.278Z,12.45
2023-05-16T00:51:15.811Z,12.50
2023-05-16T00:51:58.831Z,11.25
2023-05-16T00:52:40.942Z,12.43
2023-05-16T00:53:24.046Z,12.05
2023-05-16T00:54:06.413Z,11.55
2023-05-16T00:54:48.215Z,11.70
2023-05-16T00:55:29.985Z,11.57
2023-05-16T00:56:11.844Z,11.43
2023-05-16T00:56:53.613Z,11.75
2023-05-16T00:57:35.870Z,11.18
2023-05-16T00:58:18.534Z,11.57
2023-05-16T00:59:00.515Z,11.70
2023-05-16T00:59:43.857Z,11.85
2023-05-16T01:00:26.254Z,12.88
2023-05-16T01:01:08.722Z,12.30
2023-05-16T01:01:53.681Z,12.60
2023-05-16T01:02:36.555Z,13.07
2023-05-16T01:03:18.472Z,13.40
2023-05-16T01:04:01.338Z,12.68
2023-05-16T01:04:44.460Z,13.15
2023-05-16T01:05:26.534Z,13.68
2023-05-16T01:06:08.541Z,13.30
2023-05-16T01:06:50.367Z,12.55
2023-05-16T01:07:32.172Z,13.05
2023-05-16T01:08:13.800Z,12.80
2023-05-16T01:08:55.606Z,13.95
2023-05-16T01:09:38.313Z,13.57
2023-05-16T01:10:20.075Z,13.80
2023-05-16T01:11:22.514Z,14.25
2023-05-16T01:12:13.392Z,14.13
2023-05-16T01:13:03.649Z,13.45
2023-05-16T01:14:10.288Z,13.63
2023-05-16T01:15:07.100Z,13.75
2023-05-16T01:15:59.761Z,13.30
2023-05-16T01:16:47.127Z,14.27
2023-05-16T01:17:43.673Z,13.35
2023-05-16T01:18:30.378Z,13.63
2023-05-16T01:19:17.796Z,13.55
2023-05-16T01:20:06.492Z,14.38
2023-05-16T01:21:03.979Z,13.82
2023-05-16T01:21:57.603Z,13.23
2023-05-16T01:22:57.700Z,13.38
2023-05-16T01:23:48.459Z,13.43
2023-05-16T01:24:42.051Z,13.25
2023-05-16T01:25:59.818Z,14.07
2023-05-16T01:26:41.945Z,13.98
2023-05-16T01:27:24.489Z,15.18
2023-05-16T01:28:07.513Z,15.00
2023-05-16T01:28:51.288Z,15.18
2023-05-16T01:29:33.678Z,15.38
2023-05-16T01:30:19.586Z,15.57
2023-05-16T01:31:01.537Z,15.65
2023-05-16T01:31:43.981Z,15.45
2023-05-16T01:32:27.436Z,15.85
2023-05-16T01:33:09.966Z,14.77
2023-05-16T01:33:51.907Z,15.38
2023-05-16T01:34:33.752Z,15.75
2023-05-16T01:35:17.335Z,15.15
2023-05-16T01:36:02.480Z,14.73
2023-05-16T01:36:56.976Z,15.02
2023-05-16T01:37:48.938Z,14.30
2023-05-16T01:38:43.441Z,15.38
2023-05-16T01:39:41.687Z,15.40
2023-05-16T01:40:29.645Z,14.95
2023-05-16T01:41:25.426Z,15.40
2023-05-16T01:42:14.112Z,14.38
2023-05-16T01:42:59.897Z,15.18
2023-05-16T01:43:48.308Z,14.93
2023-05-16T01:44:43.462Z,15.07
2023-05-16T01:45:32.487Z,14.27
2023-05-16T01:46:16.658Z,14.10
2023-05-16T01:47:02.328Z,13.93
2023-05-16T01:47:52.738Z,13.63
2023-05-16T01:48:49.458Z,13.50
2023-05-16T01:49:38.554Z,14.00
2023-05-16T01:50:25.748Z,13.95
2023-05-16T01:51:11.447Z,14.45
2023-05-16T01:52:00.172Z,14.75
2023-05-16T01:52:55.434Z,15.43
2023-05-16T01:53:39.111Z,14.98
2023-05-16T01:54:24.925Z,16.10
2023-05-16T01:55:11.694Z,15.75
2023-05-16T01:55:57.326Z,16.90
2023-05-16T01:56:39.257Z,16.92
2023-05-16T01:57:25.868Z,18.02
2023-05-16T01:58:08.346Z,18.35
2023-05-16T01:58:52.504Z,16.45
2023-05-16T01:59:34.689Z,17.67
2023-05-16T02:00:16.455Z,16.52
2023-05-16T02:01:05.847Z,17.17
2023-05-16T02:01:48.024Z,17.23
2023-05-16T02:02:30.926Z,18.02
2023-05-16T02:03:12.921Z,17.00
2023-05-16T02:03:54.737Z,18.48
2023-05-16T02:04:36.468Z,17.65
2023-05-16T02:05:18.191Z,18.23
2023-05-16T02:06:00.707Z,17.52
2023-05-16T02:06:42.851Z,17.92
2023-05-16T02:07:24.581Z,16.95
2023-05-16T02:08:06.444Z,18.30
2023-05-16T02:08:49.051Z,17.58
2023-05-16T02:09:33.008Z,17.88
2023-05-16T02:10:14.705Z,18.20
2023-05-16T02:10:56.519Z,19.05
2023-05-16T02:11:38.246Z,19.88
2023-05-16T02:12:20.526Z,19.13
2023-05-16T02:13:02.292Z,20.17
2023-05-16T02:13:44.555Z,20.02
2023-05-16T02:14:26.597Z,20.05
2023-05-16T02:15:09.869Z,20.58
2023-05-16T02:15:51.626Z,19.17
2023-05-16T02:16:34.043Z,18.98
2023-05-16T02:17:16.087Z,19.85
2023-05-16T02:17:58.667Z,20.40
2023-05-16T02:18:41.341Z,19.05
2023-05-16T02:19:23.180Z,19.25
2023-05-16T02:20:07.219Z,18.67
2023-05-16T02:20:49.987Z,19.70
2023-05-16T02:21:31.679Z,18.23
2023-05-16T02:22:13.312Z,19.10
2023-05-16T02:22:55.014Z,19.02
2023-05-16T02:23:36.661Z,19.17
2023-05-16T02:24:18.369Z,19.55
2023-05-16T02:25:01.299Z,19.35
2023-05-16T02:25:43.083Z,19.65
2023-05-16T02:26:25.063Z,18.80
2023-05-16T02:27:06.750Z,18.33
2023-05-16T02:27:49.324Z,18.77
2023-05-16T02:28:31.059Z,18.20
2023-05-16T02:29:12.773Z,19.50
2023-05-16T02:29:54.409Z,18.45
2023-05-16T02:30:36.202Z,18.98
2023-05-16T02:31:31.322Z,19.40
2023-05-16T02:32:12.984Z,18.90
2023-05-16T02:32:54.715Z,18.30
2023-05-16T02:33:36.376Z,17.20
2023-05-16T02:34:18.081Z,18.02
2023-05-16T02:34:59.948Z,17.90
2023-05-16T02:35:41.667Z,17.67
2023-05-16T02:36:23.476Z,17.85
2023-05-16T02:37:05.859Z,16.23
2023-05-16T02:37:47.568Z,18.15
2023-05-16T02:38:29.246Z,17.23
2023-05-16T02:39:11.372Z,16.73
2023-05-16T02:39:53.150Z,18.25
2023-05-16T02:40:35.067Z,16.42
2023-05-16T02:41:17.839Z,17.45
2023-05-16T02:41:59.531Z,17.00
2023-05-16T02:42:41.144Z,17.02
2023-05-16T02:43:23.904Z,17.30
2023-05-16T02:44:05.826Z,17.77
2023-05-16T02:44:47.612Z,17.00
2023-05-16T02:45:29.688Z,17.08
2023-05-16T02:46:33.082Z,16.63
2023-05-16T02:47:14.928Z,17.70
2023-05-16T02:47:56.690Z,16.73
2023-05-16T02:48:38.340Z,17.60
2023-05-16T02:49:20.237Z,17.42
2023-05-16T02:50:03.576Z,16.83
2023-05-16T02:50:45.378Z,16.88
2023-05-16T02:51:28.310Z,16.88
2023-05-16T02:52:10.336Z,17.27
2023-05-16T02:52:52.308Z,17.80
2023-05-16T02:53:34.110Z,17.67
2023-05-16T02:54:15.833Z,16.83
2023-05-16T02:55:10.124Z,17.20
2023-05-16T02:55:59.322Z,17.42
2023-05-16T02:56:41.081Z,16.23
2023-05-16T02:57:25.808Z,16.77
2023-05-16T02:58:07.997Z,16.80
2023-05-16T02:58:50.566Z,16.45
2023-05-16T02:59:32.215Z,18.52
2023-05-16T03:00:15.708Z,18.30
2023-05-16T03:00:58.654Z,18.05
2023-05-16T03:01:40.517Z,17.35
2023-05-16T03:02:22.367Z,18.70
2023-05-16T03:03:04.984Z,19.08
2023-05-16T03:03:46.888Z,18.67
2023-05-16T03:04:28.700Z,19.13
2023-05-16T03:05:11.278Z,19.70
2023-05-16T03:05:53.214Z,18.17
2023-05-16T03:06:34.862Z,18.50
2023-05-16T03:07:16.570Z,18.83
2023-05-16T03:07:58.212Z,18.65
2023-05-16T03:08:41.566Z,19.90
2023-05-16T03:09:23.362Z,17.75
2023-05-16T03:10:05.846Z,19.17
2023-05-16T03:10:47.492Z,17.05
2023-05-16T03:11:29.135Z,18.73
2023-05-16T03:12:10.849Z,19.00
2023-05-16T03:12:52.709Z,19.55
2023-05-16T03:13:34.527Z,17.98
2023-05-16T03:14:16.297Z,18.73
2023-05-16T03:14:58.983Z,19.08
2023-05-16T03:15:40.735Z,17.33
2023-05-16T03:16:22.454Z,18.38
2023-05-16T03:17:04.760Z,17.20
2023-05-16T03:17:46.520Z,17.88
2023-05-16T03:18:28.226Z,17.38
2023-05-16T03:19:10.803Z,18.25
2023-05-16T03:19:52.687Z,17.85
2023-05-16T03:20:34.401Z,19.55
2023-05-16T03:21:16.102Z,19.00
2023-05-16T03:21:59.813Z,19.48
2023-05-16T03:22:42.770Z,19.35
2023-05-16T03:23:25.672Z,20.15
2023-05-16T03:24:08.146Z,19.15
2023-05-16T03:24:50.463Z,19.95
2023-05-16T03:25:32.194Z,19.70
2023-05-16T03:26:13.899Z,18.25
2023-05-16T03:26:56.007Z,18.42
2023-05-16T03:27:37.779Z,19.35
2023-05-16T03:28:19.432Z,18.58
2023-05-16T03:29:01.242Z,19.55
2023-05-16T03:29:45.694Z,19.90
2023-05-16T03:30:27.533Z,18.52
2023-05-16T03:31:09.209Z,18.23
2023-05-16T03:31:51.201Z,18.05
2023-05-16T03:32:33.455Z,18.42
2023-05-16T03:33:15.290Z,19.90
2023-05-16T03:33:57.282Z,19.35
2023-05-16T03:34:39.050Z,19.75
2023-05-16T03:35:20.822Z,18.23
2023-05-16T03:36:02.561Z,18.67
2023-05-16T03:36:44.253Z,18.73
2023-05-16T03:37:26.464Z,18.90
2023-05-16T03:38:08.201Z,18.88
2023-05-16T03:38:50.281Z,17.30
2023-05-16T03:39:31.984Z,18.20
2023-05-16T03:40:13.787Z,18.30
2023-05-16T03:40:55.796Z,17.58
2023-05-16T03:41:37.899Z,16.67
2023-05-16T03:42:19.998Z,16.58
2023-05-16T03:43:01.819Z,17.15
2023-05-16T03:43:43.453Z,17.05
2023-05-16T03:44:25.162Z,16.67
2023-05-16T03:45:07.686Z,16.25
2023-05-16T03:45:49.397Z,17.52
2023-05-16T03:46:31.249Z,15.55
2023-05-16T03:47:12.988Z,16.35
2023-05-16T03:47:54.692Z,15.73
2023-05-16T03:48:36.355Z,16.52
2023-05-16T03:49:18.447Z,15.40
2023-05-16T03:50:00.390Z,15.68
2023-05-16T03:50:42.182Z,15.55
2023-05-16T03:51:23.809Z,15.73
2023-05-16T03:52:05.934Z,16.13
2023-05-16T03:52:47.775Z,15.45
2023-05-16T03:53:29.512Z,15.93
2023-05-16T03:54:11.230Z,15.52
2023-05-16T03:54:52.894Z,15.35
2023-05-16T03:55:35.087Z,15.95
2023-05-16T03:56:16.763Z,15.20
2023-05-16T03:56:58.372Z,15.93
2023-05-16T03:57:40.020Z,15.77
2023-05-16T03:58:21.779Z,16.63
2023-05-16T03:59:03.684Z,14.65
2023-05-16T03:59:45.394Z,15.70
2023-05-16T04:00:27.210Z,16.10
2023-05-16T04:01:08.858Z,16.13
2023-05-16T04:01:50.588Z,15.25
2023-05-16T04:02:32.328Z,16.30
2023-05-16T04:03:14.175Z,15.25
2023-05-16T04:03:55.875Z,16.80
2023-05-16T04:04:37.551Z,15.93
2023-05-16T04:05:19.458Z,15.93
2023-05-16T04:06:01.163Z,16.85
2023-05-16T04:06:42.845Z,16.33
2023-05-16T04:07:24.767Z,16.52
2023-05-16T04:08:06.590Z,16.50
2023-05-16T04:08:48.327Z,18.45
2023-05-16T04:09:29.940Z,19.05
2023-05-16T04:10:13.124Z,19.35
2023-05-16T04:10:54.870Z,17.45
2023-05-16T04:11:36.720Z,18.35
2023-05-16T04:12:18.406Z,19.48
2023-05-16T04:13:00.084Z,19.10
2023-05-16T04:13:42.049Z,20.10
2023-05-16T04:14:24.215Z,20.80
2023-05-16T04:15:07.236Z,20.35
2023-05-16T04:15:48.967Z,19.17
2023-05-16T04:16:30.714Z,18.98
2023-05-16T04:17:12.893Z,19.77
2023-05-16T04:17:54.843Z,19.75
2023-05-16T04:18:36.847Z,19.00
2023-05-16T04:19:18.825Z,20.05
2023-05-16T04:20:01.057Z,19.52
2023-05-16T04:20:43.634Z,20.05
2023-05-16T04:21:25.321Z,19.73
2023-05-16T04:22:07.697Z,19.70
2023-05-16T04:22:49.426Z,20.00
2023-05-16T04:23:31.216Z,20.17
2023-05-16T04:24:12.986Z,19.80
2023-05-16T04:24:54.629Z,20.27
2023-05-16T04:25:36.614Z,19.17
2023-05-16T04:26:18.315Z,20.08
2023-05-16T04:27:01.240Z,20.50
2023-05-16T04:27:45.819Z,19.73
2023-05-16T04:28:27.801Z,19.98
2023-05-16T04:29:09.496Z,20.20
2023-05-16T04:29:51.125Z,19.42
2023-05-16T04:30:32.834Z,21.02
2023-05-16T04:31:15.039Z,19.98
2023-05-16T04:31:56.917Z,20.38
2023-05-16T04:32:38.736Z,20.73
2023-05-16T04:33:20.392Z,21.38
2023-05-16T04:34:02.485Z,21.63
2023-05-16T04:34:46.673Z,23.13
2023-05-16T04:35:28.901Z,24.10
2023-05-16T04:36:10.778Z,22.77
2023-05-16T04:36:52.546Z,23.35
2023-05-16T04:37:34.229Z,21.25
2023-05-16T04:38:16.185Z,21.35
2023-05-16T04:38:57.863Z,21.15
2023-05-16T04:39:39.619Z,20.98
2023-05-16T04:40:21.814Z,22.17
2023-05-16T04:41:03.846Z,21.77
2023-05-16T04:41:45.583Z,20.58
2023-05-16T04:42:27.200Z,21.55
2023-05-16T04:43:08.873Z,21.70
2023-05-16T04:43:50.635Z,21.63
2023-05-16T04:44:32.344Z,21.58
2023-05-16T04:45:14.670Z,21.80
2023-05-16T04:45:58.526Z,22.50
2023-05-16T04:46:40.286Z,21.48
2023-05-16T04:47:22.004Z,21.52
2023-05-16T04:48:03.925Z,21.15
2023-05-16T04:48:46.243Z,20.63
2023-05-16T04:49:28.473Z,21.60
2023-05-16T04:50:10.495Z,23.40
2023-05-16T04:50:52.474Z,23.17
2023-05-16T04:51:34.572Z,23.38
2023-05-16T04:52:16.556Z,22.33
2023-05-16T04:52:58.299Z,24.25
2023-05-16T04:53:40.069Z,23.85
2023-05-16T04:54:21.836Z,23.77
2023-05-16T04:55:04.305Z,22.45
2023-05-16T04:55:46.219Z,23.05
2023-05-16T04:56:27.976Z,24.45
2023-05-16T04:57:09.730Z,22.33
2023-05-16T04:57:51.354Z,22.65
2023-05-16T04:58:33.045Z,23.38
2023-05-16T04:59:15.126Z,23.20
2023-05-16T04:59:56.803Z,23.45
2023-05-16T05:00:39.395Z,22.23
2023-05-16T05:01:21.426Z,23.10
2023-05-16T05:02:04.254Z,21.42
2023-05-16T05:02:46.715Z,22.88
2023-05-16T05:03:28.480Z,21.90
2023-05-16T05:04:10.156Z,20.40
2023-05-16T05:04:51.979Z,21.77
2023-05-16T05:05:34.060Z,21.95
2023-05-16T05:06:16.572Z,20.90
2023-05-16T05:06:58.298Z,21.55
2023-05-16T05:07:40.906Z,21.88
2023-05-16T05:08:22.892Z,21.42
2023-05-16T05:09:05.911Z,20.27
2023-05-16T05:09:47.818Z,21.45
2023-05-16T05:10:31.167Z,19.60
2023-05-16T05:11:12.858Z,22.25
2023-05-16T05:11:54.542Z,21.75
2023-05-16T05:12:36.249Z,20.55
2023-05-16T05:13:18.147Z,21.33
2023-05-16T05:13:59.811Z,20.75
2023-05-16T05:14:41.523Z,20.67
2023-05-16T05:15:23.281Z,21.45
2023-05-16T05:16:05.963Z,21.40
2023-05-16T05:16:47.695Z,21.25
2023-05-16T05:17:29.916Z,21.17
2023-05-16T05:18:12.066Z,22.55
2023-05-16T05:18:53.970Z,22.33
2023-05-16T05:19:35.891Z,21.05
2023-05-16T05:20:17.687Z,21.38
2023-05-16T05:20:59.831Z,21.65
2023-05-16T05:21:41.547Z,24.10
2023-05-16T05:22:23.209Z,22.77
2023-05-16T05:23:04.956Z,24.33
2023-05-16T05:23:46.966Z,25.20
2023-05-16T05:24:28.761Z,25.10
2023-05-16T05:25:10.652Z,23.38
2023-05-16T05:25:52.320Z,24.98
2023-05-16T05:26:34.155Z,24.00
2023-05-16T05:27:15.959Z,24.15
2023-05-16T05:27:57.570Z,23.65
2023-05-16T05:28:39.407Z,23.77
2023-05-16T05:29:22.573Z,24.67
2023-05-16T05:30:04.822Z,23.92
2023-05-16T05:30:48.338Z,25.35
2023-05-16T05:31:30.202Z,24.63
2023-05-16T05:32:12.412Z,24.77
2023-05-16T05:32:54.896Z,24.80
2023-05-16T05:33:36.623Z,25.77
2023-05-16T05:34:18.296Z,25.02
2023-05-16T05:35:00.058Z,24.23
2023-05-16T05:35:42.081Z,24.27
2023-05-16T05:36:23.810Z,25.10
2023-05-16T05:37:05.482Z,24.77
2023-05-16T05:37:47.508Z,25.23
2023-05-16T05:38:29.248Z,24.88
2023-05-16T05:39:11.047Z,24.15
2023-05-16T05:39:52.755Z,23.55
2023-05-16T05:40:34.421Z,24.08
2023-05-16T05:41:16.186Z,23.65
2023-05-16T05:41:58.708Z,23.50
2023-05-16T05:42:40.356Z,22.85
2023-05-16T05:43:22.017Z,24.05
2023-05-16T05:44:03.895Z,23.10
2023-05-16T05:44:45.654Z,23.27
2023-05-16T05:45:27.752Z,23.02
2023-05-16T05:46:09.934Z,24.17
2023-05-16T05:46:51.856Z,24.20
2023-05-16T05:47:33.668Z,23.15
2023-05-16T05:48:15.607Z,24.27
2023-05-16T05:48:57.350Z,23.95
2023-05-16T05:49:39.415Z,23.42
2023-05-16T05:50:21.199Z,23.73
2023-05-16T05:51:05.802Z,25.90
2023-05-16T05:51:47.490Z,25.63
2023-05-16T05:52:29.198Z,25.17
2023-05-16T05:53:11.229Z,23.98
2023-05-16T05:53:54.063Z,24.52
2023-05-16T05:54:35.811Z,24.95
2023-05-16T05:55:17.888Z,24.67
2023-05-16T05:55:59.642Z,24.83
2023-05-16T05:56:41.292Z,26.35
2023-05-16T05:57:23.005Z,24.98
2023-05-16T05:58:30.648Z,25.80
2023-05-16T05:59:12.486Z,24.80
2023-05-16T05:59:54.134Z,25.67
2023-05-16T06:00:36.103Z,26.58
2023-05-16T06:01:17.799Z,26.58
2023-05-16T06:01:59.736Z,25.27
2023-05-16T06:02:41.881Z,24.67
2023-05-16T06:03:23.844Z,26.05
2023-05-16T06:04:05.923Z,25.80
2023-05-16T06:04:47.810Z,24.77
2023-05-16T06:05:29.811Z,23.73
2023-05-16T06:06:11.755Z,23.40
2023-05-16T06:06:53.451Z,24.33
2023-05-16T06:07:35.157Z,24.15
2023-05-16T06:08:16.832Z,24.17
2023-05-16T06:08:58.988Z,23.92
2023-05-16T06:09:41.055Z,22.48
2023-05-16T06:10:23.201Z,22.30
2023-05-16T06:11:04.853Z,22.45
2023-05-16T06:11:46.599Z,23.00
2023-05-16T06:12:28.288Z,23.85
2023-05-16T06:13:09.967Z,21.30
2023-05-16T06:13:52.242Z,23.00
2023-05-16T06:14:33.885Z,22.42
2023-05-16T06:15:15.565Z,23.25
2023-05-16T06:15:57.294Z,23.13
2023-05-16T06:16:40.239Z,24.05
2023-05-16T06:17:22.231Z,23.90
2023-05-16T06:18:04.156Z,23.98
2023-05-16T06:18:46.060Z,23.35
2023-05-16T06:19:27.796Z,24.35
2023-05-16T06:20:09.863Z,23.85
2023-05-16T06:20:53.267Z,24.00
2023-05-16T06:21:35.008Z,24.80
2023-05-16T06:22:16.649Z,24.80
2023-05-16T06:22:58.469Z,24.42
2023-05-16T06:23:40.145Z,23.95
2023-05-16T06:24:21.892Z,23.92
2023-05-16T06:25:03.809Z,22.90
2023-05-16T06:25:45.949Z,24.30
2023-05-16T06:26:27.916Z,24.67
2023-05-16T06:27:09.612Z,23.45
2023-05-16T06:27:51.352Z,24.77
2023-05-16T06:28:33.135Z,23.00
2023-05-16T06:29:14.850Z,24.58
2023-05-16T06:29:56.752Z,26.10
2023-05-16T06:30:38.549Z,24.92
2023-05-16T06:31:20.322Z,25.73
2023-05-16T06:32:02.400Z,23.90
2023-05-16T06:32:44.596Z,24.75
2023-05-16T06:33:26.455Z,23.05
2023-05-16T06:34:08.091Z,24.90
2023-05-16T06:34:49.887Z,24.58
2023-05-16T06:35:31.797Z,25.35
2023-05-16T06:36:13.504Z,24.55
2023-05-16T06:36:55.367Z,23.88
2023-05-16T06:37:37.096Z,25.10
2023-05-16T06:38:22.539Z,24.23
2023-05-16T06:39:05.001Z,24.60
2023-05-16T06:39:46.837Z,25.60
2023-05-16T06:40:28.542Z,24.67
2023-05-16T06:41:10.443Z,24.88
2023-05-16T06:41:53.732Z,25.20
2023-05-16T06:42:36.658Z,26.27
2023-05-16T06:43:18.422Z,24.52
2023-05-16T06:44:00.205Z,24.95
2023-05-16T06:44:41.876Z,26.10
2023-05-16T06:45:23.659Z,24.40
2023-05-16T06:46:05.413Z,25.05
2023-05-16T06:46:47.142Z,24.10
2023-05-16T06:47:28.925Z,24.08
2023-05-16T06:48:11.216Z,23.38
2023-05-16T06:48:53.026Z,22.95
2023-05-16T06:49:35.029Z,23.13
2023-05-16T06:50:16.869Z,24.40
2023-05-16T06:50:58.586Z,23.63
2023-05-16T06:51:40.531Z,24.35
2023-05-16T06:52:22.707Z,23.25
2023-05-16T06:53:06.711Z,23.25
2023-05-16T06:53:48.506Z,23.85
2023-05-16T06:54:30.195Z,23.52
2023-05-16T06:55:12.456Z,22.95
2023-05-16T06:55:54.394Z,23.95
2023-05-16T06:56:36.153Z,24.48
2023-05-16T06:57:17.919Z,23.77
2023-05-16T06:57:59.626Z,24.23
2023-05-16T06:58:41.562Z,24.35
2023-05-16T06:59:24.558Z,23.88
2023-05-16T07:00:08.299Z,23.38
2023-05-16T07:00:50.761Z,24.75
2023-05-16T07:01:32.564Z,24.15
2023-05-16T07:02:14.322Z,23.88
2023-05-16T07:02:56.325Z,24.40
2023-05-16T07:03:38.336Z,22.83
2023-05-16T07:04:20.153Z,23.77
2023-05-16T07:05:01.935Z,25.70
2023-05-16T07:05:43.773Z,23.25
2023-05-16T07:06:25.502Z,26.35
2023-05-16T07:07:09.073Z,25.75
2023-05-16T07:07:50.913Z,24.48
2023-05-16T07:08:33.069Z,23.52
2023-05-16T07:09:14.878Z,24.13
2023-05-16T07:09:56.592Z,24.13
2023-05-16T07:10:41.327Z,25.13
2023-05-16T07:11:23.000Z,24.10
2023-05-16T07:12:05.609Z,25.58
2023-05-16T07:12:48.059Z,26.27
2023-05-16T07:13:29.808Z,26.45
2023-05-16T07:14:11.654Z,27.83
2023-05-16T07:14:53.380Z,26.27
2023-05-16T07:15:35.160Z,27.45
2023-05-16T07:16:16.886Z,27.05
2023-05-16T07:16:58.737Z,26.13
2023-05-16T07:17:40.708Z,26.98
2023-05-16T07:18:22.506Z,26.92
2023-05-16T07:19:04.306Z,25.17
2023-05-16T07:19:46.108Z,27.42
2023-05-16T07:20:27.868Z,25.33
2023-05-16T07:21:09.733Z,25.85
2023-05-16T07:21:51.470Z,26.80
2023-05-16T07:22:33.245Z,26.95
2023-05-16T07:23:15.101Z,26.65
2023-05-16T07:23:57.649Z,25.38
2023-05-16T07:24:39.619Z,27.23
2023-05-16T07:25:21.294Z,26.63
2023-05-16T07:26:03.439Z,27.38
2023-05-16T07:26:45.389Z,28.30
2023-05-16T07:27:28.224Z,29.25
2023-05-16T07:28:10.198Z,29.27
2023-05-16T07:28:52.071Z,29.42
2023-05-16T07:29:33.878Z,28.27
2023-05-16T07:30:15.698Z,28.13
2023-05-16T07:30:58.870Z,27.25
2023-05-16T07:31:40.758Z,26.30
2023-05-16T07:32:25.562Z,25.80
2023-05-16T07:33:07.287Z,26.75
2023-05-16T07:33:49.262Z,26.55
2023-05-16T07:34:31.497Z,26.48
2023-05-16T07:35:13.485Z,25.92
2023-05-16T07:36:07.857Z,27.15
2023-05-16T07:36:56.873Z,26.73
2023-05-16T07:37:41.473Z,25.40
2023-05-16T07:38:23.265Z,26.42
2023-05-16T07:39:07.979Z,25.33
2023-05-16T07:39:49.685Z,24.63
2023-05-16T07:40:31.449Z,25.55
2023-05-16T07:41:13.391Z,24.60
2023-05-16T07:41:55.398Z,24.02
2023-05-16T07:42:37.172Z,22.20
2023-05-16T07:43:19.172Z,21.98
2023-05-16T07:44:01.010Z,22.55
2023-05-16T07:44:42.886Z,21.35
2023-05-16T07:45:24.617Z,22.05
2023-05-16T07:46:06.521Z,22.95
2023-05-16T07:46:48.280Z,21.08
2023-05-16T07:47:30.038Z,21.77
2023-05-16T07:48:11.889Z,21.30
2023-05-16T07:48:53.611Z,22.42
2023-05-16T07:49:35.461Z,22.63
2023-05-16T07:50:17.827Z,22.55
2023-05-16T07:50:59.521Z,22.75
2023-05-16T07:51:41.247Z,22.52
2023-05-16T07:52:22.973Z,23.77
2023-05-16T07:53:04.759Z,23.13
2023-05-16T07:53:47.234Z,21.60
2023-05-16T07:54:29.043Z,21.83
2023-05-16T07:55:10.825Z,21.55
2023-05-16T07:55:52.673Z,23.33
2023-05-16T07:56:34.809Z,22.35
2023-05-16T07:57:17.263Z,22.15
2023-05-16T07:57:59.135Z,23.80
2023-05-16T07:58:41.771Z,21.92
2023-05-16T07:59:23.579Z,22.40
2023-05-16T08:00:06.267Z,22.13
2023-05-16T08:00:54.248Z,22.23
2023-05-16T08:01:36.534Z,22.73
2023-05-16T08:02:18.425Z,21.40
2023-05-16T08:03:00.685Z,22.55
2023-05-16T08:03:42.744Z,22.05
2023-05-16T08:04:24.614Z,22.65
2023-05-16T08:05:07.103Z,21.00
2023-05-16T08:05:49.116Z,21.40
2023-05-16T08:06:31.314Z,22.45
2023-05-16T08:07:13.246Z,23.40
2023-05-16T08:07:54.977Z,22.23
2023-05-16T08:08:37.269Z,23.58
2023-05-16T08:09:19.292Z,22.17
2023-05-16T08:10:00.987Z,22.52
2023-05-16T08:10:45.467Z,21.63
2023-05-16T08:11:27.974Z,20.83
2023-05-16T08:12:09.811Z,20.55
2023-05-16T08:12:52.997Z,21.50
2023-05-16T08:13:34.771Z,20.42
2023-05-16T08:14:16.536Z,21.35
2023-05-16T08:14:58.288Z,21.08
2023-05-16T08:15:40.150Z,21.40
2023-05-16T08:16:21.942Z,21.80
2023-05-16T08:17:03.819Z,21.35
2023-05-16T08:17:45.693Z,21.63
2023-05-16T08:18:27.442Z,21.15
2023-05-16T08:19:09.299Z,21.10
2023-05-16T08:19:51.176Z,19.85
2023-05-16T08:20:32.887Z,21.50
2023-05-16T08:21:16.598Z,20.65
2023-05-16T08:21:58.904Z,20.27
2023-05-16T08:22:40.698Z,20.75
2023-05-16T08:23:22.489Z,20.58
2023-05-16T08:24:05.626Z,21.20
2023-05-16T08:24:47.408Z,19.67
2023-05-16T08:25:29.250Z,21.17
2023-05-16T08:26:11.109Z,19.90
2023-05-16T08:26:52.816Z,20.92
2023-05-16T08:27:34.540Z,22.17
2023-05-16T08:28:16.735Z,21.27
2023-05-16T08:28:58.452Z,21.00
2023-05-16T08:29:40.152Z,19.75
2023-05-16T08:30:21.866Z,20.00
2023-05-16T08:31:03.881Z,20.40
2023-05-16T08:32:05.481Z,19.38
2023-05-16T08:32:59.469Z,17.48
2023-05-16T08:33:46.956Z,19.95
2023-05-16T08:34:39.011Z,18.88
2023-05-16T08:35:24.655Z,18.05
2023-05-16T08:36:22.023Z,17.50
2023-05-16T08:37:21.646Z,18.35
2023-05-16T08:38:08.975Z,17.92
2023-05-16T08:39:01.842Z,18.30
2023-05-16T08:39:52.463Z,16.88
2023-05-16T08:41:03.103Z,18.27
2023-05-16T08:41:58.515Z,17.05
2023-05-16T08:42:55.304Z,17.48
2023-05-16T08:43:43.422Z,18.85
2023-05-16T08:44:31.636Z,17.17
2023-05-16T08:45:19.100Z,16.42
2023-05-16T08:46:07.999Z,16.85
2023-05-16T08:46:54.011Z,15.38
2023-05-16T08:48:02.250Z,15.70
2023-05-16T08:49:02.877Z,16.10
2023-05-16T08:50:00.788Z,15.73
2023-05-16T08:50:51.076Z,15.68
2023-05-16T08:51:42.670Z,15.15
2023-05-16T08:52:57.217Z,14.48
2023-05-16T08:54:14.669Z,15.70
2023-05-16T08:55:10.372Z,15.82
2023-05-16T08:56:10.237Z,13.98
2023-05-16T08:56:58.939Z,14.50
2023-05-16T08:57:52.136Z,13.25
2023-05-16T08:58:41.911Z,11.63
2023-05-16T08:59:35.864Z,8.93
2023-05-16T09:00:23.519Z,9.43
2023-05-16T09:01:16.138Z,8.40
2023-05-16T09:02:08.110Z,7.85
2023-05-16T09:02:56.439Z,7.13
2023-05-16T09:03:45.164Z,11.73
2023-05-16T09:04:39.349Z,5.80
2023-05-16T09:05:28.696Z,4.97
2023-05-16T09:06:13.652Z,5.30
2023-05-16T09:07:03.450Z,4.20
2023-05-16T09:07:53.524Z,3.85
2023-05-16T09:08:48.982Z,3.67
2023-05-16T09:09:36.620Z,3.03
2023-05-16T09:10:24.060Z,2.60
2023-05-16T09:11:08.621Z,2.22
2023-05-16T09:12:06.203Z,2.63
2023-05-16T09:13:01.615Z,2.60
2023-05-16T09:14:56.949Z,2.80
2023-05-16T09:16:20.858Z,2.60
2023-05-16T09:17:18.595Z,3.75
2023-05-16T09:18:31.052Z,3.60
2023-05-16T09:19:53.834Z,3.63
2023-05-16T09:21:28.831Z,3.67
2023-05-16T09:22:15.072Z,3.40
2023-05-16T09:23:05.215Z,3.10
2023-05-16T09:24:58.235Z,3.92
2023-05-16T09:25:52.179Z,3.97
2023-05-16T09:26:47.706Z,5.05